Arbyrd, MO

8:17 PM CST on February 13, 2016 (GMT -0600)
Farmers Union Gin, Senath, MO | | Change Station
CLOSE
Current Station
Personal Weather Station
Location: Senath, MO
Elevation: 253 ft
Nearby Weather Stations
Active Advisory: Winter Weather Advisory

Elev 253 ft 36.13 °N, 90.17 °W | Updated 4 seconds ago

Mostly Cloudy
Mostly Cloudy
28.6 °F
Feels Like 29 °F
N
2.9
Wind Variable Wind from ENE
Gusts 4.9 mph

Today
High -- | Low -- °F
--% Chance of Precip.
Yesterday
High -- | Low -- °F
Precip. -- in
Pressure 30.47 in
Visibility 10.0 miles
Clouds Clear
Windchill 29 °F
Dew Point 3 °F
Humidity 33%
Rainfall 0.00 in
Snow Depth Not available.
6:50 AM 5:39 PM
Waxing Crescent, 36% visible
METAR KHKA 140153Z AUTO 08007KT 10SM CLR M02/M12 A3045 RMK AO2 SLP316 T10171122
Pressure 30.47 in
Visibility 10.0 miles
Clouds Clear
Windchill 29 °F
Dew Point 3 °F
Humidity 33%
Rainfall 0.00 in
Snow Depth Not available.
6:50 AM 5:39 PM
Waxing Crescent, 36% visible
METAR KHKA 140153Z AUTO 08007KT 10SM CLR M02/M12 A3045 RMK AO2 SLP316 T10171122

10-Day Weather Forecast

Almanac

Astronomy

Feb. 13, 2016 Rise Set
Actual Time
Civil Twilight
Nautical Twilight
Astronomical Twilight
Moon
Length of Visible Light
Length of Day
Tomorrow will be .
, % of the Moon is Illuminated

Today's Extremes

State Highs State Lows

Community

WunderPhotos

Upload Photos

1,892,726 photos uploaded!

WunderBlog® & News

Nearby

Air Quality

  Air Quality AQ Index Pollutant
Not available.

Snow Depth

Station Depth Elevation

Earthquake Activity

City Distance Mag. Time & Date
Minimum magnitude displayed is 2.5.

Coastal Water Temperatures

Place Temperature

Stations

Nearby Weather Stations

Station Location Temp. Windchill Dew Point Humidity Wind Precip. Elev Updated Type
                   

Watches & Warnings

Winter Weather Advisory
Issued: 3:35 PM CST Feb. 13, 2016 – National Weather Service

... Winter Weather Advisory in effect from 6 am to 6 PM CST
Sunday...

The National Weather Service in Memphis has issued a Winter
Weather Advisory for snow... sleet... and freezing rain... which is
in effect from 6 am to 6 PM CST Sunday.

* Snow/sleet/ice accumulations... less than 0.10 inch of snow and sleet
accumulation is expected with less than 0.10 inch of ice
accumulation possible.

* Timing... 6 am CST Sunday through 6 PM CST Sunday.

* Impacts... ice on roadways could create hazardous travel in the
advisory area. Bridges and overpasses as well as other elevated
roadways will be prone to ice and could become slick.

Precautionary/preparedness actions...

A Winter Weather Advisory means that periods of snow... sleet... or
freezing rain will cause travel difficulties. Be prepared for
slippery roads... and use caution while driving.



Zdm